Time;durP1;ratioP1;P1;durP2;ratioP2;P2;SDS_P1;SDS_P2;PMS_P1;PMS_P2;Temp;Humidity;BMP_temperature;BMP_pressure;BME280_temperature;BME280_humidity;BME280_pressure;Samples;Min_cycle;Max_cycle;Signal;HPM_P1;HPM_P2
2024/01/27 00:01:02;;;;;;;17.60;3.80;;;;;;;4.46;90.86;102254.03;5053196;28;20206;-74
2024/01/27 00:03:31;;;;;;;20.87;4.97;;;;;;;4.46;90.81;102253.16;5053144;28;20261;-73
2024/01/27 00:06:00;;;;;;;20.43;3.67;;;;;;;4.46;90.78;102262.00;5053090;28;20205;-74
2024/01/27 00:08:30;;;;;;;20.20;3.67;;;;;;;4.44;91.50;102271.84;5053128;28;20253;-74
2024/01/27 00:10:58;;;;;;;19.27;4.50;;;;;;;4.43;91.49;102264.81;5052775;28;20725;-74
2024/01/27 00:13:27;;;;;;;18.30;3.53;;;;;;;4.42;91.74;102276.34;5052613;28;20230;-73
2024/01/27 00:15:55;;;;;;;19.13;3.73;;;;;;;4.43;92.66;102283.38;5052778;28;20210;-73
2024/01/27 00:18:24;;;;;;;18.17;4.07;;;;;;;4.40;92.61;102291.50;5052725;28;20248;-73
2024/01/27 00:20:52;;;;;;;19.73;3.63;;;;;;;4.39;92.81;102295.06;5053192;28;20241;-73
2024/01/27 00:23:21;;;;;;;20.23;4.40;;;;;;;4.39;93.64;102289.78;5052571;28;20789;-73
2024/01/27 00:25:51;;;;;;;15.20;4.43;;;;;;;4.38;93.34;102292.53;5052925;28;20206;-73
2024/01/27 00:28:20;;;;;;;18.03;3.43;;;;;;;4.39;93.58;102291.56;5052921;28;20259;-73
2024/01/27 00:30:48;;;;;;;17.17;3.70;;;;;;;4.36;93.48;102292.59;5052895;28;20209;-73
2024/01/27 00:33:17;;;;;;;16.63;4.13;;;;;;;4.39;94.30;102296.88;5052715;28;20245;-73
2024/01/27 00:35:46;;;;;;;17.20;4.20;;;;;;;4.38;94.25;102293.38;5052418;28;20703;-73
2024/01/27 00:38:14;;;;;;;19.37;4.03;;;;;;;4.39;94.19;102299.53;5052860;28;20626;-73
2024/01/27 00:40:43;;;;;;;18.87;3.60;;;;;;;4.38;94.33;102297.84;5052825;28;20282;-73
2024/01/27 00:43:13;;;;;;;17.23;4.03;;;;;;;4.38;94.37;102306.66;5052664;28;20309;-73
2024/01/27 00:45:41;;;;;;;21.03;4.33;;;;;;;4.38;94.58;102309.31;5055182;28;20296;-73
2024/01/27 00:48:10;;;;;;;25.33;4.67;;;;;;;4.39;94.81;102303.03;5056454;28;20206;-73
2024/01/27 00:50:39;;;;;;;21.37;3.77;;;;;;;4.40;95.06;102311.84;5056096;28;20648;-74
2024/01/27 00:53:07;;;;;;;19.37;3.80;;;;;;;4.38;94.83;102304.00;5056279;28;20226;-74
2024/01/27 00:55:36;;;;;;;18.77;4.03;;;;;;;4.39;94.50;102305.69;5056202;28;20232;-74
2024/01/27 00:58:05;;;;;;;18.90;3.80;;;;;;;4.40;94.41;102312.72;5056261;28;20283;-74
2024/01/27 01:00:34;;;;;;;18.10;3.40;;;;;;;4.41;94.67;102308.28;5056166;28;20284;-74
2024/01/27 01:03:03;;;;;;;22.30;4.37;;;;;;;4.40;95.13;102318.00;5056106;28;20226;-73
2024/01/27 01:05:32;;;;;;;22.60;4.10;;;;;;;4.41;95.75;102316.22;5056115;28;20206;-73
2024/01/27 01:08:00;;;;;;;22.60;4.13;;;;;;;4.42;96.03;102309.97;5056050;28;20214;-73
2024/01/27 01:10:29;;;;;;;23.30;4.53;;;;;;;4.41;96.48;102317.09;5056028;28;20305;-73
2024/01/27 01:12:57;;;;;;;24.57;4.13;;;;;;;4.44;96.55;102313.41;5055912;28;20269;-73
2024/01/27 01:15:26;;;;;;;21.80;4.63;;;;;;;4.44;96.38;102303.66;5055784;28;20306;-73
2024/01/27 01:17:56;;;;;;;20.93;4.33;;;;;;;4.43;97.07;102307.25;5055889;28;20202;-73
2024/01/27 01:20:26;;;;;;;21.53;4.00;;;;;;;4.43;97.76;102317.84;5055500;28;20580;-73
2024/01/27 01:22:54;;;;;;;22.93;4.97;;;;;;;4.42;98.24;102310.81;5055734;28;20234;-73
2024/01/27 01:25:23;;;;;;;17.03;3.70;;;;;;;4.43;98.94;102328.44;5055748;28;20228;-74
2024/01/27 01:27:52;;;;;;;20.67;4.00;;;;;;;4.43;98.84;102333.75;5055675;28;20246;-74
2024/01/27 01:30:21;;;;;;;17.10;3.93;;;;;;;4.43;98.43;102325.81;5055643;28;20206;-74
2024/01/27 01:32:50;;;;;;;22.40;5.10;;;;;;;4.42;98.74;102333.81;5055501;28;20217;-74
2024/01/27 01:35:20;;;;;;;19.30;4.37;;;;;;;4.40;99.26;102336.56;5055238;28;20360;-74
2024/01/27 01:37:50;;;;;;;25.90;4.33;;;;;;;4.38;99.63;102335.81;5055503;28;20301;-74
2024/01/27 01:40:18;;;;;;;25.70;4.80;;;;;;;4.37;99.70;102333.22;5055147;28;20747;-74
2024/01/27 01:42:52;;;;;;;17.20;3.90;;;;;;;4.35;100.00;102329.81;5055617;28;20304;-74
2024/01/27 01:45:21;;;;;;;23.77;4.33;;;;;;;4.32;99.54;102329.94;5055411;28;20186;-74
2024/01/27 01:47:49;;;;;;;20.13;4.40;;;;;;;4.31;99.08;102337.06;5055002;28;20574;-74
2024/01/27 01:50:21;;;;;;;18.87;4.67;;;;;;;4.27;99.06;102340.81;5055326;28;20206;-74
2024/01/27 01:52:52;;;;;;;25.33;5.23;;;;;;;4.25;98.98;102339.16;5054887;28;20633;-74
2024/01/27 01:55:21;;;;;;;20.00;4.47;;;;;;;4.23;99.30;102346.34;5054779;28;20702;-74
2024/01/27 01:57:50;;;;;;;23.63;5.57;;;;;;;4.22;99.12;102340.19;5055157;28;20298;-74
2024/01/27 02:00:19;;;;;;;21.60;4.67;;;;;;;4.20;99.73;102336.78;5055092;28;20210;-74
2024/01/27 02:02:48;;;;;;;20.50;4.40;;;;;;;4.19;99.73;102335.06;5054980;28;20206;-74
2024/01/27 02:05:17;;;;;;;27.30;4.80;;;;;;;4.14;99.93;102336.25;5054695;28;20293;-74
2024/01/27 02:07:47;;;;;;;19.53;4.33;;;;;;;4.11;100.00;102331.94;5054979;28;20209;-74
2024/01/27 02:10:17;;;;;;;25.33;4.37;;;;;;;4.06;100.00;102337.50;5054636;28;20248;-74
2024/01/27 02:12:47;;;;;;;25.60;4.90;;;;;;;3.99;100.00;102344.06;5054820;28;20234;-74
2024/01/27 02:15:15;;;;;;;27.47;4.50;;;;;;;3.96;100.00;102346.00;5054637;28;20225;-74
2024/01/27 02:17:44;;;;;;;18.80;3.77;;;;;;;3.95;100.00;102353.09;5054750;28;20206;-74
2024/01/27 02:20:13;;;;;;;20.40;3.80;;;;;;;3.91;100.00;102345.38;5054709;28;20259;-74
2024/01/27 02:22:41;;;;;;;20.57;4.60;;;;;;;3.90;100.00;102335.72;5054234;28;20632;-73
2024/01/27 02:25:11;;;;;;;22.90;4.30;;;;;;;3.88;100.00;102340.22;5054281;28;20636;-74
2024/01/27 02:27:39;;;;;;;17.80;4.77;;;;;;;3.84;100.00;102336.00;5054532;28;20234;-74
2024/01/27 02:30:09;;;;;;;18.13;4.37;;;;;;;3.76;100.00;102341.72;5054515;28;20289;-74
2024/01/27 02:32:38;;;;;;;22.97;4.70;;;;;;;3.75;100.00;102341.78;5054406;28;20210;-74
2024/01/27 02:35:08;;;;;;;22.77;4.27;;;;;;;3.76;100.00;102335.56;5054199;28;20228;-74
2024/01/27 02:37:36;;;;;;;20.73;4.57;;;;;;;3.74;100.00;102343.56;5054417;28;20226;-74
2024/01/27 02:40:06;;;;;;;28.57;5.07;;;;;;;3.78;100.00;102338.97;5054337;28;20202;-74
2024/01/27 02:42:36;;;;;;;22.63;4.37;;;;;;;3.70;100.00;102351.78;5054308;28;20209;-74
2024/01/27 02:45:05;;;;;;;22.13;3.97;;;;;;;3.72;100.00;102361.34;5053924;28;20296;-73
2024/01/27 02:47:33;;;;;;;24.23;4.47;;;;;;;3.66;100.00;102359.03;5054189;28;20264;-73
2024/01/27 02:50:02;;;;;;;22.77;4.80;;;;;;;3.64;100.00;102357.34;5053887;28;20209;-73
2024/01/27 02:52:30;;;;;;;20.43;4.37;;;;;;;3.68;100.00;102358.94;5054028;28;20661;-73
2024/01/27 02:54:59;;;;;;;29.53;5.60;;;;;;;3.60;100.00;102353.19;5053844;28;20241;-73
2024/01/27 02:57:28;;;;;;;21.03;3.70;;;;;;;3.63;100.00;102372.38;5054028;28;20256;-73
2024/01/27 02:59:58;;;;;;;26.10;4.87;;;;;;;3.60;100.00;102377.00;5053651;28;20623;-73
2024/01/27 03:02:26;;;;;;;27.37;4.47;;;;;;;3.53;100.00;102372.00;5053948;28;20213;-73
2024/01/27 03:04:55;;;;;;;24.27;5.50;;;;;;;3.54;100.00;102384.31;5053808;28;20226;-74
2024/01/27 03:07:23;;;;;;;20.37;4.83;;;;;;;3.53;100.00;102390.53;5053174;28;20293;-73
2024/01/27 03:09:52;;;;;;;22.90;4.17;;;;;;;3.53;100.00;102394.97;5053795;28;20301;-74
2024/01/27 03:12:22;;;;;;;18.33;4.60;;;;;;;3.50;100.00;102403.91;5053724;28;20306;-74
2024/01/27 03:14:51;;;;;;;20.97;4.27;;;;;;;3.53;100.00;102402.91;5053266;28;20644;-74
2024/01/27 03:17:21;;;;;;;21.97;5.33;;;;;;;3.49;100.00;102411.97;5053667;28;20298;-74
2024/01/27 03:19:50;;;;;;;23.83;4.77;;;;;;;3.51;100.00;102413.59;5053624;28;20212;-74
2024/01/27 03:22:19;;;;;;;17.47;3.87;;;;;;;3.51;100.00;102400.34;5053621;28;20301;-74
2024/01/27 03:24:47;;;;;;;22.30;4.27;;;;;;;3.51;100.00;102410.94;5053500;28;20258;-73
2024/01/27 03:27:16;;;;;;;19.33;4.03;;;;;;;3.50;100.00;102409.22;5053516;28;20289;-74
2024/01/27 03:29:44;;;;;;;16.97;4.23;;;;;;;3.49;100.00;102419.91;5053506;28;20233;-74
2024/01/27 03:32:13;;;;;;;16.70;3.73;;;;;;;3.46;100.00;102418.25;5053467;28;20209;-74
2024/01/27 03:34:45;;;;;;;21.00;3.97;;;;;;;3.45;100.00;102416.53;5053227;28;20253;-73
2024/01/27 03:37:14;;;;;;;28.97;4.77;;;;;;;3.43;100.00;102413.09;5053453;28;20210;-73
2024/01/27 03:39:45;;;;;;;27.40;4.67;;;;;;;3.45;100.00;102416.53;5053165;28;20670;-73
2024/01/27 03:42:14;;;;;;;21.53;4.23;;;;;;;3.43;100.00;102423.69;5053388;28;20284;-74
2024/01/27 03:44:42;;;;;;;21.43;4.63;;;;;;;3.43;100.00;102422.81;5053270;28;20226;-74
2024/01/27 03:47:11;;;;;;;19.97;4.20;;;;;;;3.36;100.00;102427.56;5053310;28;20202;-74
2024/01/27 03:49:39;;;;;;;21.23;5.43;;;;;;;3.39;100.00;102414.16;5053284;28;20212;-74
2024/01/27 03:52:10;;;;;;;28.57;6.10;;;;;;;3.38;100.00;102420.41;5053303;28;20236;-74
2024/01/27 03:54:39;;;;;;;25.13;6.57;;;;;;;3.34;100.00;102432.06;5053140;28;20723;-73
2024/01/27 03:57:08;;;;;;;32.47;9.70;;;;;;;3.31;100.00;102440.16;5053114;28;20226;-73
2024/01/27 03:59:36;;;;;;;27.40;10.03;;;;;;;3.33;100.00;102427.69;5053222;28;20214;-73
2024/01/27 04:02:05;;;;;;;41.57;20.60;;;;;;;3.32;100.00;102433.91;5053216;28;20210;-73
2024/01/27 04:04:33;;;;;;;31.20;11.70;;;;;;;3.28;100.00;102439.44;5053073;28;20275;-73
2024/01/27 04:07:02;;;;;;;39.20;20.07;;;;;;;3.29;100.00;102444.66;5053133;28;20558;-73
2024/01/27 04:09:32;;;;;;;19.73;6.67;;;;;;;3.25;100.00;102440.47;5052872;28;20730;-73
2024/01/27 04:12:01;;;;;;;21.27;5.97;;;;;;;3.27;100.00;102443.88;5053107;28;20218;-73
2024/01/27 04:14:30;;;;;;;22.00;5.50;;;;;;;3.21;100.00;102449.47;5053015;28;20233;-73
2024/01/27 04:16:58;;;;;;;29.23;9.83;;;;;;;3.26;100.00;102449.22;5053074;28;20256;-74
2024/01/27 04:19:27;;;;;;;23.00;6.60;;;;;;;3.27;100.00;102441.25;5054984;28;20245;-74
2024/01/27 04:21:55;;;;;;;21.63;6.30;;;;;;;3.23;100.00;102444.94;5057265;28;20213;-74
2024/01/27 04:24:24;;;;;;;22.73;5.87;;;;;;;3.25;100.00;102447.53;5057172;28;20253;-74
2024/01/27 04:26:54;;;;;;;20.33;4.83;;;;;;;3.21;100.00;102452.13;5056819;28;20288;-74
2024/01/27 04:29:22;;;;;;;22.37;4.90;;;;;;;3.19;100.00;102451.31;5056792;28;20264;-74
2024/01/27 04:31:52;;;;;;;19.17;4.97;;;;;;;3.21;100.00;102460.06;5056780;28;20306;-74
2024/01/27 04:34:20;;;;;;;25.80;4.90;;;;;;;3.20;100.00;102457.47;5056598;28;20230;-74
2024/01/27 04:36:49;;;;;;;25.53;5.03;;;;;;;3.19;100.00;102450.44;5056242;28;20226;-74
2024/01/27 04:39:17;;;;;;;19.20;4.63;;;;;;;3.20;100.00;102457.47;5056662;28;20248;-74
2024/01/27 04:41:46;;;;;;;23.67;4.93;;;;;;;3.18;100.00;102460.22;5056265;28;20268;-74
2024/01/27 04:44:16;;;;;;;18.97;4.80;;;;;;;3.17;100.00;102462.91;5056461;28;20226;-74
2024/01/27 04:46:44;;;;;;;18.93;4.17;;;;;;;3.17;100.00;102468.19;5056460;28;20202;-74
2024/01/27 04:49:13;;;;;;;18.70;4.57;;;;;;;3.17;100.00;102479.66;5056411;28;20293;-73
2024/01/27 04:51:42;;;;;;;25.43;4.80;;;;;;;3.14;100.00;102477.16;5056378;28;20214;-74
2024/01/27 04:54:10;;;;;;;20.03;4.30;;;;;;;3.10;100.00;102472.06;5056292;28;20280;-74
2024/01/27 04:56:39;;;;;;;17.97;4.37;;;;;;;3.08;100.00;102469.50;5056167;28;20226;-73
2024/01/27 04:59:07;;;;;;;20.07;4.50;;;;;;;3.10;100.00;102466.75;5056272;28;20202;-73
2024/01/27 05:01:37;;;;;;;16.60;4.23;;;;;;;3.11;100.00;102473.78;5055898;28;20614;-73
2024/01/27 05:04:06;;;;;;;23.30;4.87;;;;;;;3.08;100.00;102477.44;5056401;28;20257;-73
2024/01/27 05:06:35;;;;;;;21.50;4.87;;;;;;;3.03;100.00;102482.94;5055813;28;20624;-73
2024/01/27 05:09:04;;;;;;;20.43;4.90;;;;;;;3.02;100.00;102485.63;5055761;28;20664;-73
2024/01/27 05:11:33;;;;;;;23.03;4.77;;;;;;;2.98;100.00;102490.19;5055693;28;20624;-73
2024/01/27 05:14:05;;;;;;;18.43;4.67;;;;;;;2.97;100.00;102488.50;5055897;28;20226;-73
2024/01/27 05:16:34;;;;;;;24.80;4.20;;;;;;;2.94;100.00;102495.72;5055885;28;20218;-73
2024/01/27 05:19:04;;;;;;;22.50;4.40;;;;;;;2.97;100.00;102492.94;5055900;28;20259;-74
2024/01/27 05:21:32;;;;;;;21.20;4.83;;;;;;;2.93;100.00;102491.34;5055817;28;20206;-74
2024/01/27 05:24:01;;;;;;;20.40;4.10;;;;;;;2.91;100.00;102493.22;5055388;28;20613;-73
2024/01/27 05:26:30;;;;;;;20.27;4.30;;;;;;;2.92;100.00;102489.63;5055796;28;20229;-73
2024/01/27 05:28:59;;;;;;;14.87;4.20;;;;;;;2.91;100.00;102499.34;5055699;28;20238;-73
2024/01/27 05:31:27;;;;;;;21.60;4.80;;;;;;;2.88;100.00;102502.13;5055027;28;20222;-73
2024/01/27 05:33:56;;;;;;;21.23;4.50;;;;;;;2.89;100.00;102497.69;5055561;28;20321;-73
2024/01/27 05:36:26;;;;;;;26.40;4.43;;;;;;;2.86;100.00;102508.41;5055410;28;20226;-73
2024/01/27 05:38:55;;;;;;;23.57;4.10;;;;;;;2.86;100.00;102511.06;5055838;28;20206;-73
2024/01/27 05:41:28;;;;;;;22.93;4.57;;;;;;;2.82;100.00;102504.19;5055480;28;20216;-73
2024/01/27 05:43:57;;;;;;;23.40;4.17;;;;;;;2.80;100.00;102506.06;5055404;28;20225;-73
2024/01/27 05:46:26;;;;;;;21.90;4.60;;;;;;;2.79;100.00;102509.63;5055616;28;20251;-73
2024/01/27 05:48:57;;;;;;;20.77;4.27;;;;;;;2.78;100.00;102518.47;5055339;28;20256;-73
2024/01/27 05:51:28;;;;;;;17.27;4.07;;;;;;;2.77;100.00;102516.78;5055023;28;20567;-73
2024/01/27 05:53:56;;;;;;;20.03;4.70;;;;;;;2.78;100.00;102521.09;5055175;28;20336;-73
2024/01/27 05:56:25;;;;;;;19.00;3.90;;;;;;;2.78;100.00;102508.75;5055136;28;20206;-73
2024/01/27 05:58:54;;;;;;;19.37;3.93;;;;;;;2.74;100.00;102516.91;5055152;28;20241;-73
2024/01/27 06:01:22;;;;;;;18.97;4.53;;;;;;;2.75;100.00;102529.19;5055072;28;20236;-73
2024/01/27 06:03:51;;;;;;;19.17;3.83;;;;;;;2.73;100.00;102526.63;5055029;28;20237;-73
2024/01/27 06:06:20;;;;;;;13.40;4.17;;;;;;;2.74;100.00;102533.59;5054983;28;20206;-73
2024/01/27 06:08:50;;;;;;;16.10;4.27;;;;;;;2.75;100.00;102523.88;5055009;28;20210;-73
2024/01/27 06:11:24;;;;;;;25.77;4.27;;;;;;;2.72;100.00;102527.53;5054891;28;20213;-73
2024/01/27 06:13:53;;;;;;;22.33;4.93;;;;;;;2.72;100.00;102524.03;5054842;28;20225;-73
2024/01/27 06:16:23;;;;;;;14.20;4.33;;;;;;;2.73;100.00;102536.34;5054855;28;20206;-73
2024/01/27 06:18:51;;;;;;;16.80;4.10;;;;;;;2.71;100.00;102532.88;5054773;28;20293;-74
2024/01/27 06:21:20;;;;;;;22.10;5.37;;;;;;;2.65;100.00;102528.72;5054697;28;20202;-74
2024/01/27 06:23:50;;;;;;;16.90;4.30;;;;;;;2.65;100.00;102533.16;5054338;28;20230;-74
2024/01/27 06:26:20;;;;;;;15.40;3.83;;;;;;;2.67;100.00;102536.59;5054346;28;20691;-74
2024/01/27 06:28:49;;;;;;;24.13;4.83;;;;;;;2.64;100.00;102542.03;5054285;28;20768;-73
2024/01/27 06:31:17;;;;;;;14.60;3.60;;;;;;;2.67;100.00;102547.19;5054540;28;20210;-73
2024/01/27 06:33:46;;;;;;;20.27;3.70;;;;;;;2.68;100.00;102546.25;5054130;28;20254;-74
2024/01/27 06:36:15;;;;;;;16.73;4.13;;;;;;;2.68;100.00;102559.47;5054322;28;20287;-74
2024/01/27 06:38:43;;;;;;;20.03;4.10;;;;;;;2.64;100.00;102552.63;5054265;28;20233;-74
2024/01/27 06:41:13;;;;;;;22.90;4.70;;;;;;;2.61;100.00;102555.34;5054357;28;20241;-74
2024/01/27 06:43:41;;;;;;;14.67;4.00;;;;;;;2.62;100.00;102565.88;5053220;28;20313;-74
2024/01/27 06:46:10;;;;;;;13.40;3.50;;;;;;;2.63;100.00;102558.81;5054304;28;20206;-74
2024/01/27 06:48:39;;;;;;;14.43;4.13;;;;;;;2.63;100.00;102572.91;5054181;28;20263;-73
2024/01/27 06:51:08;;;;;;;18.20;3.90;;;;;;;2.62;100.00;102572.94;5054250;28;20210;-73
2024/01/27 06:53:36;;;;;;;18.27;4.63;;;;;;;2.60;100.00;102574.81;5054035;28;20226;-73
2024/01/27 06:56:05;;;;;;;23.53;4.57;;;;;;;2.59;100.00;102573.09;5054078;28;20302;-73
2024/01/27 06:58:36;;;;;;;18.20;3.40;;;;;;;2.59;100.00;102586.31;5053924;28;20309;-73
2024/01/27 07:01:07;;;;;;;19.50;4.07;;;;;;;2.50;100.00;102582.28;5053686;28;20285;-74
2024/01/27 07:03:36;;;;;;;19.43;4.63;;;;;;;2.53;100.00;102588.25;5053822;28;20249;-73
2024/01/27 07:06:05;;;;;;;19.77;4.50;;;;;;;2.50;100.00;102590.22;5053854;28;20201;-73
2024/01/27 07:08:33;;;;;;;16.63;3.80;;;;;;;2.47;100.00;102592.94;5053883;28;20206;-73
2024/01/27 07:11:06;;;;;;;21.40;4.53;;;;;;;2.47;100.00;102604.38;5053526;28;20644;-73
2024/01/27 07:13:36;;;;;;;18.47;3.93;;;;;;;2.40;100.00;102586.19;5053716;28;20280;-73
2024/01/27 07:16:06;;;;;;;14.40;3.50;;;;;;;2.38;100.00;102588.06;5054237;28;20687;-74
2024/01/27 07:18:35;;;;;;;18.80;4.00;;;;;;;2.28;100.00;102592.00;5053852;28;20583;-74
2024/01/27 07:21:04;;;;;;;15.20;3.93;;;;;;;2.31;100.00;102592.72;5053612;28;20238;-74
2024/01/27 07:23:36;;;;;;;12.33;3.50;;;;;;;2.24;100.00;102591.25;5053345;28;20226;-74
2024/01/27 07:26:05;;;;;;;18.53;4.73;;;;;;;2.16;100.00;102597.78;5053326;28;20671;-74
2024/01/27 07:28:35;;;;;;;19.77;4.37;;;;;;;2.12;100.00;102598.81;5053303;28;20630;-74
2024/01/27 07:31:04;;;;;;;18.43;4.43;;;;;;;2.17;100.00;102610.91;5053204;28;20578;-74
2024/01/27 07:33:32;;;;;;;15.43;4.20;;;;;;;2.18;100.00;102611.78;5053164;28;20264;-74
2024/01/27 07:36:01;;;;;;;14.80;4.00;;;;;;;2.17;100.00;102610.91;5053012;28;20634;-74
2024/01/27 07:38:30;;;;;;;15.60;4.13;;;;;;;2.18;100.00;102607.38;5053018;28;20222;-74
2024/01/27 07:40:59;;;;;;;20.87;4.83;;;;;;;2.17;100.00;102617.97;5053404;28;20245;-74
2024/01/27 07:43:28;;;;;;;18.23;4.00;;;;;;;2.20;100.00;102615.22;5053013;28;20280;-74
2024/01/27 07:45:57;;;;;;;22.10;4.23;;;;;;;2.14;100.00;102624.25;5053348;28;20260;-74
2024/01/27 07:48:26;;;;;;;17.90;5.20;;;;;;;2.17;100.00;102618.84;5053316;28;20288;-74
2024/01/27 07:50:56;;;;;;;18.83;4.30;;;;;;;2.19;100.00;102624.97;5053355;28;20297;-74
2024/01/27 07:53:25;;;;;;;18.70;4.93;;;;;;;2.20;100.00;102633.72;5053489;28;20280;-74
2024/01/27 07:55:56;;;;;;;18.30;4.10;;;;;;;2.18;100.00;102630.28;5057423;28;20313;-74
2024/01/27 07:58:24;;;;;;;12.10;5.23;;;;;;;2.12;100.00;102627.88;5057065;28;20689;-74
2024/01/27 08:00:53;;;;;;;16.47;5.23;;;;;;;2.16;100.00;102630.34;5057348;28;20355;-74
2024/01/27 08:03:23;;;;;;;20.73;6.00;;;;;;;2.14;100.00;102632.19;5056938;28;20222;-74
2024/01/27 08:05:51;;;;;;;16.03;4.97;;;;;;;2.09;100.00;102628.84;5057259;28;20202;-74
2024/01/27 08:08:20;;;;;;;16.80;4.70;;;;;;;2.13;100.00;102635.75;5056950;28;20625;-74
2024/01/27 08:10:49;;;;;;;15.97;5.37;;;;;;;2.08;100.00;102637.72;5057149;28;20210;-74
2024/01/27 08:13:17;;;;;;;20.03;5.33;;;;;;;2.09;100.00;102644.69;5057080;28;20221;-74
2024/01/27 08:15:46;;;;;;;20.10;5.47;;;;;;;2.12;100.00;102638.47;5056784;28;20264;-74
2024/01/27 08:18:14;;;;;;;20.43;5.27;;;;;;;2.14;100.00;102637.47;5056985;28;20225;-74
2024/01/27 08:20:44;;;;;;;16.07;5.30;;;;;;;2.15;100.00;102649.78;5057001;28;20233;-74
2024/01/27 08:23:13;;;;;;;22.40;5.10;;;;;;;2.17;100.00;102647.91;5056913;28;20316;-74
2024/01/27 08:25:44;;;;;;;20.47;5.90;;;;;;;2.18;100.00;102641.72;5056931;28;20241;-74
2024/01/27 08:28:13;;;;;;;24.97;6.33;;;;;;;2.19;100.00;102638.16;5056900;28;20202;-73
2024/01/27 08:30:41;;;;;;;23.40;6.47;;;;;;;2.22;100.00;102639.81;5056508;28;20569;-73
2024/01/27 08:33:10;;;;;;;22.10;5.90;;;;;;;2.23;100.00;102637.09;5056713;28;20222;-73
2024/01/27 08:35:39;;;;;;;27.47;5.60;;;;;;;2.24;100.00;102637.97;5056494;28;20214;-73
2024/01/27 08:38:09;;;;;;;18.63;5.20;;;;;;;2.27;100.00;102654.56;5056665;28;20602;-74
2024/01/27 08:40:37;;;;;;;17.00;5.33;;;;;;;2.29;100.00;102642.16;5057416;28;20209;-74
2024/01/27 08:43:06;;;;;;;20.83;5.40;;;;;;;2.32;100.00;102643.81;5056519;28;20312;-74
2024/01/27 08:45:35;;;;;;;17.50;5.90;;;;;;;2.35;100.00;102647.19;5056253;28;20245;-74
2024/01/27 08:48:04;;;;;;;21.73;6.20;;;;;;;2.39;100.00;102647.94;5056506;28;20209;-74
2024/01/27 08:50:32;;;;;;;22.37;5.73;;;;;;;2.41;100.00;102657.53;5056145;28;20210;-74
2024/01/27 08:53:01;;;;;;;20.23;5.77;;;;;;;2.44;100.00;102660.03;5056053;28;20316;-73
2024/01/27 08:55:31;;;;;;;18.97;5.67;;;;;;;2.49;100.00;102665.16;5056083;28;20731;-73
2024/01/27 08:57:59;;;;;;;22.47;5.87;;;;;;;2.53;100.00;102662.28;5056286;28;20212;-74
2024/01/27 09:00:28;;;;;;;20.23;6.30;;;;;;;2.55;100.00;102664.88;5056250;28;20230;-74
2024/01/27 09:02:57;;;;;;;23.60;5.90;;;;;;;2.59;100.00;102674.44;5055846;28;20581;-74
2024/01/27 09:05:27;;;;;;;20.17;5.63;;;;;;;2.59;100.00;102681.50;5055066;28;20206;-74
2024/01/27 09:07:56;;;;;;;23.90;6.70;;;;;;;2.63;100.00;102678.69;5055777;28;20558;-74
2024/01/27 09:10:25;;;;;;;18.23;6.47;;;;;;;2.66;100.00;102677.69;5056063;28;20309;-74
2024/01/27 09:12:55;;;;;;;19.60;6.60;;;;;;;2.69;100.00;102682.84;5056010;28;20239;-74
2024/01/27 09:15:23;;;;;;;13.47;6.30;;;;;;;2.71;100.00;102691.56;5056033;28;20213;-74
2024/01/27 09:17:52;;;;;;;20.57;6.17;;;;;;;2.76;100.00;102686.97;5056000;28;20210;-74
2024/01/27 09:20:21;;;;;;;28.67;7.27;;;;;;;2.81;100.00;102683.19;5055805;28;20629;-74
2024/01/27 09:22:50;;;;;;;20.37;5.90;;;;;;;2.83;100.00;102685.78;5055850;28;20206;-74
2024/01/27 09:25:19;;;;;;;22.70;7.03;;;;;;;2.85;100.00;102691.84;5055785;28;20652;-74
2024/01/27 09:27:47;;;;;;;23.20;6.93;;;;;;;2.88;100.00;102686.44;5055725;28;20206;-74
2024/01/27 09:30:19;;;;;;;20.57;7.10;;;;;;;2.90;100.00;102692.53;5055568;28;20702;-73
2024/01/27 09:32:47;;;;;;;20.53;6.53;;;;;;;2.98;100.00;102693.94;5055605;28;20197;-73
2024/01/27 09:35:16;;;;;;;20.90;6.37;;;;;;;2.96;100.00;102685.22;5055446;28;20218;-73
2024/01/27 09:37:46;;;;;;;22.63;6.90;;;;;;;3.04;100.00;102684.88;5055613;28;20218;-73
2024/01/27 09:40:14;;;;;;;30.03;7.77;;;;;;;3.07;100.00;102690.06;5055504;28;20226;-73
2024/01/27 09:42:51;;;;;;;24.87;6.73;;;;;;;3.08;100.00;102695.25;5055914;28;20241;-73
2024/01/27 09:45:23;;;;;;;20.43;7.27;;;;;;;3.15;100.00;102695.03;5055160;28;20194;-73
2024/01/27 09:47:54;;;;;;;23.83;8.43;;;;;;;3.20;100.00;102693.03;5055459;28;20194;-73
2024/01/27 09:50:23;;;;;;;25.13;7.83;;;;;;;3.22;100.00;102704.44;5055409;28;20191;-74
2024/01/27 09:52:52;;;;;;;29.67;8.33;;;;;;;3.19;100.00;102705.41;5055237;28;20206;-74
2024/01/27 09:55:21;;;;;;;21.93;7.60;;;;;;;3.22;100.00;102707.06;5054954;28;20205;-74
2024/01/27 09:57:50;;;;;;;25.53;7.67;;;;;;;3.26;100.00;102706.00;5055192;28;20242;-74
2024/01/27 10:00:23;;;;;;;23.77;7.27;;;;;;;3.32;100.00;102703.94;5054764;28;20778;-74
2024/01/27 10:02:52;;;;;;;25.20;7.73;;;;;;;3.37;100.00;102715.22;5055092;28;20607;-73
2024/01/27 10:05:22;;;;;;;26.63;8.00;;;;;;;3.46;100.00;102704.19;5055052;28;20210;-73
2024/01/27 10:07:51;;;;;;;21.37;7.40;;;;;;;3.50;100.00;102708.44;5054998;28;20206;-73
2024/01/27 10:10:24;;;;;;;21.70;7.17;;;;;;;3.50;100.00;102711.09;5054668;28;20644;-73
2024/01/27 10:12:55;;;;;;;25.10;7.63;;;;;;;3.57;100.00;102694.00;5054907;28;20294;-73
2024/01/27 10:15:27;;;;;;;21.77;7.80;;;;;;;3.60;100.00;102713.34;5054975;28;20225;-73
2024/01/27 10:18:06;;;;;;;19.97;7.73;;;;;;;3.55;100.00;102709.13;5054377;28;20584;-74
2024/01/27 10:20:35;;;;;;;25.30;8.00;;;;;;;3.62;100.00;102708.84;5054799;28;20217;-74
2024/01/27 10:23:12;;;;;;;24.60;8.20;;;;;;;3.61;100.00;102715.91;5054708;28;20253;-74
2024/01/27 10:25:41;;;;;;;20.77;7.90;;;;;;;3.73;100.00;102717.19;5054711;28;20186;-74
2024/01/27 10:28:10;;;;;;;22.27;8.77;;;;;;;3.65;100.00;102711.34;5054652;28;20206;-74
2024/01/27 10:30:40;;;;;;;19.07;7.20;;;;;;;3.67;100.00;102712.13;5054605;28;20339;-74
2024/01/27 10:33:10;;;;;;;20.90;7.90;;;;;;;3.73;100.00;102715.41;5054464;28;20234;-74
2024/01/27 10:35:39;;;;;;;23.10;8.87;;;;;;;3.84;100.00;102714.88;5054189;28;20304;-74
2024/01/27 10:38:07;;;;;;;22.30;7.57;;;;;;;3.87;100.00;102714.78;5054475;28;20212;-74
2024/01/27 10:40:37;;;;;;;19.47;7.60;;;;;;;3.84;100.00;102706.94;5054011;28;20652;-74
2024/01/27 10:43:07;;;;;;;24.87;8.17;;;;;;;3.93;100.00;102712.72;5054486;28;20250;-74
2024/01/27 10:45:37;;;;;;;24.63;8.33;;;;;;;3.99;100.00;102709.75;5054316;28;20301;-74
2024/01/27 10:48:10;;;;;;;21.73;7.67;;;;;;;4.00;100.00;102706.19;5054035;28;20194;-74
2024/01/27 10:50:41;;;;;;;22.40;8.03;;;;;;;4.08;100.00;102701.38;5053962;28;20193;-74
2024/01/27 10:53:22;;;;;;;19.67;7.43;;;;;;;4.25;99.05;102705.88;5053865;28;20237;-74
2024/01/27 10:55:54;;;;;;;25.97;8.07;;;;;;;4.28;98.71;102704.91;5053883;28;20190;-74
2024/01/27 10:58:25;;;;;;;23.13;7.77;;;;;;;4.35;97.89;102703.69;5054158;28;20198;-74
2024/01/27 11:00:56;;;;;;;22.23;7.87;;;;;;;4.36;98.92;102703.59;5053998;28;20253;-74
2024/01/27 11:03:29;;;;;;;19.90;7.50;;;;;;;4.43;98.71;102705.03;5053993;28;20313;-74
2024/01/27 11:05:58;;;;;;;29.37;8.87;;;;;;;4.41;100.00;102703.41;5053768;28;20190;-74
2024/01/27 11:08:29;;;;;;;20.23;8.07;;;;;;;4.31;100.00;102699.47;5053937;28;20206;-74
2024/01/27 11:10:59;;;;;;;16.03;5.80;;;;;;;4.38;98.33;102699.09;5053902;28;20195;-74
2024/01/27 11:13:29;;;;;;;18.93;5.90;;;;;;;4.52;96.66;102693.97;5053788;28;20222;-74
2024/01/27 11:15:59;;;;;;;17.73;5.83;;;;;;;4.69;95.01;102697.63;5053795;28;20201;-74
2024/01/27 11:18:30;;;;;;;20.63;5.53;;;;;;;4.64;95.06;102684.56;5054419;28;20213;-75
2024/01/27 11:21:00;;;;;;;23.30;5.60;;;;;;;4.69;95.16;102692.31;5053636;28;20221;-75
2024/01/27 11:23:36;;;;;;;23.50;6.30;;;;;;;4.84;94.56;102688.88;5053617;28;20230;-75
2024/01/27 11:26:06;;;;;;;20.47;5.60;;;;;;;4.79;94.19;102686.47;5053696;28;20208;-74
2024/01/27 11:28:35;;;;;;;20.43;6.10;;;;;;;4.84;94.05;102679.13;5053080;28;20202;-74